createdAt,value
2018-06-12T00:02:06.764Z,101339.52
2018-06-12T00:04:35.669Z,101331.46
2018-06-12T00:07:04.529Z,101325.12
2018-06-12T00:09:33.751Z,101327.48
2018-06-12T00:12:02.593Z,101327.96
2018-06-12T00:14:31.417Z,101315.88
2018-06-12T00:17:00.640Z,101313.98
2018-06-12T00:19:29.476Z,101314.51
2018-06-12T00:21:58.293Z,101308.82
2018-06-12T00:24:27.511Z,101316.69
2018-06-12T00:26:56.800Z,101321.23
2018-06-12T00:29:25.705Z,101318.73
2018-06-12T00:31:54.903Z,101318.63
2018-06-12T00:34:23.777Z,101315.13
2018-06-12T00:36:52.603Z,101318.63
2018-06-12T00:39:21.785Z,101316.45
2018-06-12T00:41:50.784Z,101316.88
2018-06-12T00:44:19.520Z,101316.21
2018-06-12T00:46:48.451Z,101318.53
2018-06-12T00:49:17.207Z,101316.08
2018-06-12T00:51:46.240Z,101316.98
2018-06-12T00:54:16.048Z,101316.83
2018-06-12T00:57:01.592Z,101316.45
2018-06-12T00:59:30.630Z,101315.66
2018-06-12T01:01:59.370Z,101312.38
2018-06-12T01:04:28.158Z,101322.13
2018-06-12T01:06:57.067Z,101319.77
2018-06-12T01:09:26.131Z,101313.52
2018-06-12T01:11:54.875Z,101316.02
2018-06-12T01:14:23.973Z,101311.71
2018-06-12T01:16:52.771Z,101318.48
2018-06-12T01:19:21.508Z,101313.69
2018-06-12T01:21:50.450Z,101310.78
2018-06-12T01:24:19.189Z,101316.13
2018-06-12T01:26:47.761Z,101313.31
2018-06-12T01:29:17.708Z,101308.96
2018-06-12T01:31:46.444Z,101311.27
2018-06-12T01:34:15.208Z,101318.89
2018-06-12T01:36:44.311Z,101316.48
2018-06-12T01:39:13.038Z,101314.06
2018-06-12T01:41:41.835Z,101314.25
2018-06-12T01:44:10.585Z,101315.25
2018-06-12T01:46:39.323Z,101305.41
2018-06-12T01:49:08.063Z,101303.83
2018-06-12T01:51:37.227Z,101302.16
2018-06-12T01:54:06.147Z,101308.23
2018-06-12T01:56:34.899Z,101301.70
2018-06-12T01:59:03.949Z,101302.13
2018-06-12T02:01:32.958Z,101301.73
2018-06-12T02:04:01.731Z,101303.91
2018-06-12T02:06:30.915Z,101302.88
2018-06-12T02:08:59.669Z,101302.31
2018-06-12T02:11:28.661Z,101306.62
2018-06-12T02:13:57.794Z,101311.13
2018-06-12T02:16:26.772Z,101306.48
2018-06-12T02:18:55.571Z,101301.63
2018-06-12T02:21:24.683Z,101299.06
2018-06-12T02:23:53.410Z,101291.77
2018-06-12T02:26:22.155Z,101292.30
2018-06-12T02:28:51.252Z,101292.45
2018-06-12T02:31:19.917Z,101284.17
2018-06-12T02:33:48.644Z,101286.92
2018-06-12T02:36:17.719Z,101296.96
2018-06-12T02:38:46.455Z,101294.30
2018-06-12T02:41:15.036Z,101295.44
2018-06-12T02:43:44.194Z,101291.16
2018-06-12T02:46:12.940Z,101289.86
2018-06-12T02:48:41.676Z,101294.73
2018-06-12T02:51:10.776Z,101290.61
2018-06-12T02:53:39.575Z,101293.41
2018-06-12T02:56:08.375Z,101298.72
2018-06-12T02:58:37.451Z,101295.85
2018-06-12T03:01:06.197Z,101298.11
2018-06-12T03:03:34.968Z,101307.00
2018-06-12T03:06:03.916Z,101301.16
2018-06-12T03:08:32.716Z,101306.40
2018-06-12T03:11:01.463Z,101303.95
2018-06-12T03:13:30.495Z,101299.98
2018-06-12T03:15:59.326Z,101303.50
2018-06-12T03:18:28.332Z,101307.20
2018-06-12T03:20:57.470Z,101310.40
2018-06-12T03:23:26.207Z,101316.31
2018-06-12T03:26:02.051Z,101314.98
2018-06-12T03:28:30.642Z,101314.57
2018-06-12T03:30:59.527Z,101318.95
2018-06-12T03:33:28.586Z,101320.06
2018-06-12T03:35:57.332Z,101318.27
2018-06-12T03:38:26.056Z,101325.25
2018-06-12T03:40:55.115Z,101324.19
2018-06-12T03:43:24.263Z,101323.39
2018-06-12T03:45:53.003Z,101323.88
2018-06-12T03:48:22.029Z,101318.20
2018-06-12T03:50:50.763Z,101324.19
2018-06-12T03:53:19.415Z,101325.66
2018-06-12T03:55:48.515Z,101325.59
2018-06-12T03:58:17.266Z,101321.28
2018-06-12T04:00:46.060Z,101330.98
2018-06-12T04:03:15.130Z,101329.53
2018-06-12T04:05:43.697Z,101328.02
2018-06-12T04:08:12.495Z,101322.63
2018-06-12T04:10:41.974Z,101317.41
2018-06-12T04:13:11.046Z,101314.09
2018-06-12T04:15:39.775Z,101309.01
2018-06-12T04:18:09.120Z,101312.12
2018-06-12T04:20:37.938Z,101308.55
2018-06-12T04:23:06.674Z,101310.24
2018-06-12T04:25:35.547Z,101316.28
2018-06-12T04:28:04.426Z,101308.19
2018-06-12T04:30:33.175Z,101319.73
2018-06-12T04:33:02.671Z,101313.31
2018-06-12T04:35:31.430Z,101315.02
2018-06-12T04:38:00.164Z,101317.39
2018-06-12T04:40:29.180Z,101323.36
2018-06-12T04:42:57.919Z,101329.53
2018-06-12T04:45:32.089Z,101322.63
2018-06-12T04:48:00.830Z,101317.77
2018-06-12T04:50:29.563Z,101314.61
2018-06-12T04:52:58.640Z,101314.63
2018-06-12T04:55:27.820Z,101312.82
2018-06-12T04:57:57.327Z,101315.34
2018-06-12T05:00:26.466Z,101318.04
2018-06-12T05:02:55.434Z,101312.05
2018-06-12T05:05:24.188Z,101312.31
2018-06-12T05:07:53.330Z,101307.66
2018-06-12T05:10:22.109Z,101313.38
2018-06-12T05:12:50.852Z,101312.17
2018-06-12T05:15:20.224Z,101314.64
2018-06-12T05:17:48.959Z,101319.24
2018-06-12T05:20:17.541Z,101318.03
2018-06-12T05:22:46.699Z,101313.12
2018-06-12T05:25:15.414Z,101319.72
2018-06-12T05:27:44.153Z,101316.62
2018-06-12T05:30:13.276Z,101315.59
2018-06-12T05:32:42.017Z,101317.61
2018-06-12T05:35:10.873Z,101318.36
2018-06-12T05:37:40.377Z,101318.97
2018-06-12T05:40:09.147Z,101320.67
2018-06-12T05:42:38.376Z,101319.89
2018-06-12T05:45:07.445Z,101324.19
2018-06-12T05:47:36.232Z,101329.68
2018-06-12T05:50:05.055Z,101327.09
2018-06-12T05:52:34.120Z,101330.47
2018-06-12T05:55:02.878Z,101323.45
2018-06-12T05:57:31.594Z,101324.97
2018-06-12T06:00:00.624Z,101331.66
2018-06-12T06:02:29.358Z,101328.87
2018-06-12T06:04:58.087Z,101337.72
2018-06-12T06:07:27.162Z,101337.33
2018-06-12T06:09:55.906Z,101332.95
2018-06-12T06:12:24.788Z,101334.15
2018-06-12T06:14:53.646Z,101339.70
2018-06-12T06:17:22.391Z,101342.02
2018-06-12T06:19:51.530Z,101335.17
2018-06-12T06:22:20.685Z,101335.16
2018-06-12T06:24:49.804Z,101344.49
2018-06-12T06:27:18.679Z,101348.75
2018-06-12T06:29:47.824Z,101349.09
2018-06-12T06:32:16.611Z,101346.38
2018-06-12T06:34:45.344Z,101356.86
2018-06-12T06:37:14.590Z,101349.64
2018-06-12T06:39:43.332Z,101346.94
2018-06-12T06:42:12.060Z,101353.83
2018-06-12T06:44:41.156Z,101354.66
2018-06-12T06:47:10.215Z,101356.02
2018-06-12T06:49:38.995Z,101355.34
2018-06-12T06:52:08.551Z,101354.97
2018-06-12T06:54:37.284Z,101351.44
2018-06-12T06:57:06.027Z,101351.33
2018-06-12T06:59:35.123Z,101347.98
2018-06-12T07:02:04.008Z,101352.27
2018-06-12T07:04:32.746Z,101351.96
2018-06-12T07:07:01.641Z,101346.19
2018-06-12T07:09:30.368Z,101352.30
2018-06-12T07:11:59.376Z,101352.28
2018-06-12T07:14:28.582Z,101360.02
2018-06-12T07:16:57.319Z,101349.61
2018-06-12T07:19:25.904Z,101351.09
2018-06-12T07:21:55.102Z,101341.50
2018-06-12T07:24:23.673Z,101346.77
2018-06-12T07:26:52.790Z,101353.50
2018-06-12T07:29:21.928Z,101359.42
2018-06-12T07:31:50.662Z,101357.02
2018-06-12T07:34:19.446Z,101361.51
2018-06-12T07:36:48.604Z,101367.52
2018-06-12T07:39:17.403Z,101367.88
2018-06-12T07:41:46.576Z,101358.17
2018-06-12T07:44:15.647Z,101357.36
2018-06-12T07:46:44.379Z,101350.02
2018-06-12T07:49:13.467Z,101347.83
2018-06-12T07:51:42.740Z,101358.38
2018-06-12T07:54:11.484Z,101356.25
2018-06-12T07:56:40.112Z,101354.16
2018-06-12T07:59:09.147Z,101352.37
2018-06-12T08:01:37.883Z,101360.67
2018-06-12T08:04:06.680Z,101360.25
2018-06-12T08:06:35.618Z,101364.70
2018-06-12T08:09:06.924Z,101365.94
2018-06-12T08:11:36.225Z,101362.50
2018-06-12T08:14:04.974Z,101367.81
2018-06-12T08:16:33.767Z,101362.53
2018-06-12T08:19:02.848Z,101364.34
2018-06-12T08:21:31.598Z,101369.53
2018-06-12T08:24:00.329Z,101376.36
2018-06-12T08:26:29.383Z,101372.37
2018-06-12T08:28:58.575Z,101369.67
2018-06-12T08:31:27.314Z,101377.98
2018-06-12T08:33:56.506Z,101374.87
2018-06-12T08:36:25.253Z,101373.60
2018-06-12T08:38:53.983Z,101376.09
2018-06-12T08:41:24.619Z,101378.46
2018-06-12T08:43:53.367Z,101382.74
2018-06-12T08:46:22.107Z,101380.40
2018-06-12T08:48:51.170Z,101380.70
2018-06-12T08:51:19.899Z,101377.03
2018-06-12T08:53:48.686Z,101383.06
2018-06-12T08:56:17.860Z,101381.11
2018-06-12T08:58:46.579Z,101369.51
2018-06-12T09:01:15.365Z,101366.39
2018-06-12T09:03:44.844Z,101363.95
2018-06-12T09:06:13.906Z,101363.90
2018-06-12T09:08:43.715Z,101363.58
2018-06-12T09:11:12.862Z,101365.91
2018-06-12T09:13:41.598Z,101369.42
2018-06-12T09:16:10.375Z,101366.03
2018-06-12T09:18:39.632Z,101362.41
2018-06-12T09:21:08.353Z,101368.69
2018-06-12T09:23:37.087Z,101378.27
2018-06-12T09:26:06.317Z,101366.16
2018-06-12T09:28:35.056Z,101375.66
2018-06-12T09:31:03.873Z,101373.20
2018-06-12T09:33:32.983Z,101373.30
2018-06-12T09:36:07.192Z,101381.20
2018-06-12T09:38:36.810Z,101381.00
2018-06-12T09:41:05.486Z,101384.68
2018-06-12T09:43:34.235Z,101389.08
2018-06-12T09:46:03.102Z,101386.53
2018-06-12T09:48:31.832Z,101386.45
2018-06-12T09:51:01.206Z,101383.75
2018-06-12T09:53:30.362Z,101382.58
2018-06-12T09:55:59.101Z,101380.22
2018-06-12T09:58:27.825Z,101382.91
2018-06-12T10:01:02.471Z,101375.25
2018-06-12T10:03:31.259Z,101384.77
2018-06-12T10:06:00.022Z,101382.58
2018-06-12T10:08:29.413Z,101396.95
2018-06-12T10:10:58.139Z,101393.56
2018-06-12T10:13:26.873Z,101394.48
2018-06-12T10:15:56.395Z,101401.84
2018-06-12T10:18:25.220Z,101394.20
2018-06-12T10:20:53.967Z,101384.97
2018-06-12T10:23:22.904Z,101385.95
2018-06-12T10:25:51.908Z,101386.94
2018-06-12T10:28:20.708Z,101386.56
2018-06-12T10:30:49.792Z,101385.74
2018-06-12T10:33:18.542Z,101393.22
2018-06-12T10:35:47.391Z,101397.19
2018-06-12T10:38:16.463Z,101394.42
2018-06-12T10:40:45.666Z,101393.23
2018-06-12T10:43:14.411Z,101392.06
2018-06-12T10:45:43.551Z,101391.09
2018-06-12T10:48:12.288Z,101391.66
2018-06-12T10:50:40.858Z,101387.13
2018-06-12T10:53:10.027Z,101383.88
2018-06-12T10:55:38.944Z,101387.61
2018-06-12T10:58:07.993Z,101387.70
2018-06-12T11:00:37.105Z,101401.88
2018-06-12T11:03:05.856Z,101397.61
2018-06-12T11:05:34.983Z,101399.00
2018-06-12T11:08:04.090Z,101394.27
2018-06-12T11:10:32.823Z,101403.53
2018-06-12T11:13:01.429Z,101393.86
2018-06-12T11:15:30.479Z,101398.36
2018-06-12T11:17:59.285Z,101396.40
2018-06-12T11:20:28.075Z,101396.83
2018-06-12T11:22:57.131Z,101391.86
2018-06-12T11:25:25.887Z,101391.09
2018-06-12T11:27:54.923Z,101397.38
2018-06-12T11:30:24.118Z,101397.94
2018-06-12T11:32:52.862Z,101384.58
2018-06-12T11:35:21.434Z,101391.66
2018-06-12T11:37:50.382Z,101389.06
2018-06-12T11:40:19.111Z,101393.08
2018-06-12T11:42:47.906Z,101382.36
2018-06-12T11:45:22.879Z,101398.73
2018-06-12T11:47:51.927Z,101386.80
2018-06-12T11:50:20.667Z,101390.47
2018-06-12T11:52:49.622Z,101400.14
2018-06-12T11:55:18.359Z,101396.21
2018-06-12T11:57:47.099Z,101390.69
2018-06-12T12:00:16.252Z,101392.83
2018-06-12T12:02:44.979Z,101398.75
2018-06-12T12:05:13.803Z,101390.73
2018-06-12T12:07:42.835Z,101388.48
2018-06-12T12:10:11.563Z,101379.56
2018-06-12T12:12:40.295Z,101389.52
2018-06-12T12:15:09.338Z,101378.03
2018-06-12T12:17:38.551Z,101395.98
2018-06-12T12:20:07.360Z,101392.81
2018-06-12T12:22:36.481Z,101396.30
2018-06-12T12:25:05.623Z,101388.69
2018-06-12T12:27:34.269Z,101386.91
2018-06-12T12:30:03.499Z,101390.65
2018-06-12T12:32:32.098Z,101385.73
2018-06-12T12:35:01.009Z,101385.37
2018-06-12T12:37:30.080Z,101393.06
2018-06-12T12:39:58.823Z,101389.13
2018-06-12T12:42:27.453Z,101394.61
2018-06-12T12:44:56.611Z,101383.58
2018-06-12T12:47:26.533Z,101387.92
2018-06-12T12:49:55.607Z,101384.23
2018-06-12T12:52:31.382Z,101384.19
2018-06-12T12:55:00.196Z,101382.08
2018-06-12T12:57:28.962Z,101392.47
2018-06-12T12:59:58.085Z,101388.92
2018-06-12T13:02:26.819Z,101399.66
2018-06-12T13:04:55.569Z,101389.69
2018-06-12T13:07:24.728Z,101392.33
2018-06-12T13:09:53.484Z,101381.91
2018-06-12T13:12:22.246Z,101385.05
2018-06-12T13:14:51.143Z,101382.57
2018-06-12T13:17:19.717Z,101396.33
2018-06-12T13:19:48.687Z,101394.97
2018-06-12T13:22:17.897Z,101387.05
2018-06-12T13:24:46.627Z,101389.32
2018-06-12T13:27:15.360Z,101395.33
2018-06-12T13:29:44.410Z,101391.83
2018-06-12T13:32:13.453Z,101391.41
2018-06-12T13:34:42.195Z,101398.17
2018-06-12T13:37:11.600Z,101395.97
2018-06-12T13:39:40.351Z,101392.72
2018-06-12T13:42:09.098Z,101396.45
2018-06-12T13:44:38.215Z,101389.69
2018-06-12T13:47:06.959Z,101390.90
2018-06-12T13:49:35.959Z,101386.39
2018-06-12T13:52:05.020Z,101380.05
2018-06-12T13:54:33.763Z,101388.75
2018-06-12T13:57:02.558Z,101385.83
2018-06-12T13:59:31.776Z,101381.86
2018-06-12T14:02:00.523Z,101383.77
2018-06-12T14:04:29.247Z,101393.45
2018-06-12T14:06:58.192Z,101388.09
2018-06-12T14:09:27.295Z,101384.44
2018-06-12T14:11:56.025Z,101382.86
2018-06-12T14:14:25.128Z,101381.78
2018-06-12T14:16:53.879Z,101370.44
2018-06-12T14:19:22.635Z,101372.11
2018-06-12T14:21:51.906Z,101376.78
2018-06-12T14:24:21.058Z,101383.02
2018-06-12T14:26:49.799Z,101369.02
2018-06-12T14:29:18.984Z,101378.85
2018-06-12T14:31:48.073Z,101383.73
2018-06-12T14:34:17.034Z,101381.75
2018-06-12T14:36:46.175Z,101370.33
2018-06-12T14:39:14.923Z,101375.09
2018-06-12T14:41:43.660Z,101382.98
2018-06-12T14:44:12.748Z,101383.56
2018-06-12T14:46:41.569Z,101385.73
2018-06-12T14:49:10.327Z,101386.33
2018-06-12T14:51:39.435Z,101391.17
2018-06-12T14:54:08.192Z,101392.02
2018-06-12T14:56:36.930Z,101392.60
2018-06-12T14:59:06.165Z,101386.72
2018-06-12T15:01:34.726Z,101389.88
2018-06-12T15:04:03.483Z,101389.83
2018-06-12T15:06:37.393Z,101398.30
2018-06-12T15:09:07.823Z,101393.24
2018-06-12T15:11:36.911Z,101386.73
2018-06-12T15:14:06.068Z,101384.04
2018-06-12T15:16:34.800Z,101383.06
2018-06-12T15:19:03.836Z,101373.05
2018-06-12T15:21:32.656Z,101385.91
2018-06-12T15:24:01.485Z,101387.88
2018-06-12T15:26:30.825Z,101398.95
2018-06-12T15:28:59.575Z,101383.33
2018-06-12T15:31:28.391Z,101378.39
2018-06-12T15:33:57.558Z,101383.97
2018-06-12T15:36:26.313Z,101376.09
2018-06-12T15:38:55.052Z,101385.05
2018-06-12T15:41:24.137Z,101383.21
2018-06-12T15:43:52.889Z,101382.15
2018-06-12T15:46:21.696Z,101385.48
2018-06-12T15:48:50.807Z,101373.55
2018-06-12T15:51:19.433Z,101383.88
2018-06-12T15:53:48.011Z,101384.76
2018-06-12T15:56:16.967Z,101381.33
2018-06-12T15:58:45.594Z,101369.67
2018-06-12T16:01:14.710Z,101371.61
2018-06-12T16:03:43.743Z,101358.69
2018-06-12T16:06:12.495Z,101364.64
2018-06-12T16:08:41.475Z,101366.84
2018-06-12T16:11:10.630Z,101359.01
2018-06-12T16:13:39.373Z,101361.63
2018-06-12T16:16:08.119Z,101358.23
2018-06-12T16:18:37.060Z,101353.73
2018-06-12T16:21:05.817Z,101357.66
2018-06-12T16:23:34.603Z,101364.77
2018-06-12T16:26:04.107Z,101360.39
2018-06-12T16:28:32.728Z,101360.99
2018-06-12T16:31:01.460Z,101368.61
2018-06-12T16:33:30.790Z,101370.80
2018-06-12T16:35:59.575Z,101373.21
2018-06-12T16:38:28.700Z,101371.64
2018-06-12T16:40:57.838Z,101365.98
2018-06-12T16:43:26.591Z,101364.20
2018-06-12T16:45:55.338Z,101365.97
2018-06-12T16:48:24.443Z,101361.28
2018-06-12T16:50:53.167Z,101356.36
2018-06-12T16:53:21.890Z,101368.61
2018-06-12T16:55:50.991Z,101361.69
2018-06-12T16:58:19.734Z,101357.66
2018-06-12T17:00:48.919Z,101356.01
2018-06-12T17:03:18.239Z,101356.70
2018-06-12T17:05:47.040Z,101355.80
2018-06-12T17:08:16.124Z,101357.02
2018-06-12T17:10:45.183Z,101359.20
2018-06-12T17:13:14.532Z,101359.55
2018-06-12T17:15:43.572Z,101364.14
2018-06-12T17:18:12.625Z,101357.16
2018-06-12T17:20:41.415Z,101353.71
2018-06-12T17:23:10.180Z,101348.30
2018-06-12T17:25:39.338Z,101345.73
2018-06-12T17:28:09.744Z,101336.48
2018-06-12T17:30:38.623Z,101343.38
2018-06-12T17:33:07.648Z,101342.53
2018-06-12T17:35:36.416Z,101341.78
2018-06-12T17:38:05.256Z,101351.81
2018-06-12T17:40:34.698Z,101345.92
2018-06-12T17:43:03.442Z,101339.39
2018-06-12T17:45:38.459Z,101338.45
2018-06-12T17:48:07.268Z,101347.47
2018-06-12T17:50:36.016Z,101351.45
2018-06-12T17:53:05.160Z,101353.66
2018-06-12T17:55:34.712Z,101356.09
2018-06-12T17:58:03.475Z,101355.85
2018-06-12T18:00:32.646Z,101350.60
2018-06-12T18:03:01.392Z,101362.80
2018-06-12T18:05:30.679Z,101356.75
2018-06-12T18:07:59.816Z,101348.97
2018-06-12T18:10:28.585Z,101354.32
2018-06-12T18:12:57.375Z,101366.33
2018-06-12T18:15:26.496Z,101361.81
2018-06-12T18:17:55.243Z,101361.81
2018-06-12T18:20:24.051Z,101369.08
2018-06-12T18:22:53.105Z,101360.23
2018-06-12T18:25:21.911Z,101352.29
2018-06-12T18:27:50.654Z,101353.71
2018-06-12T18:30:20.385Z,101353.25
2018-06-12T18:32:49.136Z,101355.28
2018-06-12T18:35:17.875Z,101358.77
2018-06-12T18:37:46.963Z,101359.34
2018-06-12T18:40:15.718Z,101362.39
2018-06-12T18:42:44.471Z,101357.36
2018-06-12T18:45:13.532Z,101348.91
2018-06-12T18:47:42.247Z,101359.25
2018-06-12T18:50:11.347Z,101358.80
2018-06-12T18:52:40.412Z,101346.29
2018-06-12T18:55:09.164Z,101351.41
2018-06-12T18:57:38.003Z,101346.31
2018-06-12T19:00:07.680Z,101349.23
2018-06-12T19:02:36.556Z,101357.33
2018-06-12T19:05:05.447Z,101362.50
2018-06-12T19:07:34.564Z,101360.55
2018-06-12T19:10:03.375Z,101359.20
2018-06-12T19:12:32.415Z,101354.59
2018-06-12T19:15:01.542Z,101354.39
2018-06-12T19:17:30.504Z,101355.34
2018-06-12T19:19:59.243Z,101352.37
2018-06-12T19:22:28.304Z,101358.75
2018-06-12T19:24:57.048Z,101355.81
2018-06-12T19:27:28.203Z,101361.05
2018-06-12T19:29:56.790Z,101367.46
2018-06-12T19:32:25.619Z,101369.02
2018-06-12T19:34:56.203Z,101370.89
2018-06-12T19:37:24.993Z,101374.10
2018-06-12T19:39:53.808Z,101375.06
2018-06-12T19:42:22.918Z,101377.73
2018-06-12T19:44:51.660Z,101382.28
2018-06-12T19:47:20.249Z,101378.84
2018-06-12T19:49:49.207Z,101379.11
2018-06-12T19:52:17.999Z,101381.75
2018-06-12T19:54:46.752Z,101391.38
2018-06-12T19:57:15.883Z,101384.98
2018-06-12T19:59:44.636Z,101385.67
2018-06-12T20:02:13.392Z,101385.61
2018-06-12T20:04:42.655Z,101386.09
2018-06-12T20:07:11.471Z,101381.40
2018-06-12T20:09:40.207Z,101386.72
2018-06-12T20:12:09.336Z,101396.37
2018-06-12T20:14:38.076Z,101404.55
2018-06-12T20:17:06.753Z,101406.55
2018-06-12T20:19:35.742Z,101409.44
2018-06-12T20:22:04.530Z,101410.28
2018-06-12T20:24:33.093Z,101412.38
2018-06-12T20:27:02.700Z,101414.17
2018-06-12T20:29:31.563Z,101412.09
2018-06-12T20:32:00.296Z,101413.47
2018-06-12T20:34:29.403Z,101413.46
2018-06-12T20:36:58.014Z,101414.50
2018-06-12T20:39:26.760Z,101415.64
2018-06-12T20:41:55.937Z,101415.26
2018-06-12T20:44:24.684Z,101411.52
2018-06-12T20:46:53.712Z,101413.36
2018-06-12T20:49:23.193Z,101408.62
2018-06-12T20:51:51.943Z,101411.05
2018-06-12T20:54:20.728Z,101413.56
2018-06-12T20:56:49.900Z,101414.30
2018-06-12T20:59:18.930Z,101426.89
2018-06-12T21:01:47.680Z,101422.04
2018-06-12T21:04:16.968Z,101417.73
2018-06-12T21:06:46.061Z,101423.95
2018-06-12T21:09:15.143Z,101419.91
2018-06-12T21:11:44.382Z,101418.77
2018-06-12T21:14:13.119Z,101418.97
2018-06-12T21:16:41.774Z,101416.45
2018-06-12T21:19:11.224Z,101419.44
2018-06-12T21:21:39.987Z,101423.52
2018-06-12T21:24:08.716Z,101417.55
2018-06-12T21:26:37.766Z,101418.12
2018-06-12T21:29:06.579Z,101423.42
2018-06-12T21:31:35.392Z,101420.77
2018-06-12T21:34:04.610Z,101419.98
2018-06-12T21:36:33.665Z,101419.66
2018-06-12T21:39:02.540Z,101423.09
2018-06-12T21:41:31.606Z,101422.27
2018-06-12T21:44:00.414Z,101426.48
2018-06-12T21:46:29.152Z,101427.96
2018-06-12T21:48:58.099Z,101418.57
2018-06-12T21:51:26.831Z,101413.08
2018-06-12T21:53:55.573Z,101415.50
2018-06-12T21:56:24.747Z,101414.77
2018-06-12T21:58:53.509Z,101414.33
2018-06-12T22:01:22.252Z,101412.66
2018-06-12T22:03:51.300Z,101413.27
2018-06-12T22:06:20.139Z,101415.02
2018-06-12T22:08:48.942Z,101416.22
2018-06-12T22:11:17.992Z,101417.17
2018-06-12T22:13:46.745Z,101414.83
2018-06-12T22:16:22.133Z,101414.91
2018-06-12T22:18:51.628Z,101416.33
2018-06-12T22:21:20.520Z,101420.13
2018-06-12T22:23:49.583Z,101420.88
2018-06-12T22:26:18.323Z,101416.62
2018-06-12T22:28:47.071Z,101417.39
2018-06-12T22:31:16.664Z,101422.95
2018-06-12T22:33:45.407Z,101418.70
2018-06-12T22:36:14.230Z,101419.31
2018-06-12T22:38:43.178Z,101416.87
2018-06-12T22:41:11.920Z,101417.98
2018-06-12T22:43:40.730Z,101420.08
2018-06-12T22:46:09.810Z,101422.63
2018-06-12T22:48:38.539Z,101418.45
2018-06-12T22:51:07.269Z,101426.64
2018-06-12T22:53:36.161Z,101424.89
2018-06-12T22:56:04.980Z,101426.77
2018-06-12T22:58:33.743Z,101418.62
2018-06-12T23:01:02.784Z,101415.38
2018-06-12T23:03:31.523Z,101421.20
2018-06-12T23:06:00.249Z,101419.72
2018-06-12T23:08:29.416Z,101420.23
2018-06-12T23:10:57.999Z,101421.72
2018-06-12T23:13:26.742Z,101424.55
2018-06-12T23:15:55.777Z,101427.67
2018-06-12T23:18:24.515Z,101424.61
2018-06-12T23:22:05.818Z,101426.89
2018-06-12T23:24:34.588Z,101422.66
2018-06-12T23:27:03.348Z,101421.14
2018-06-12T23:29:32.224Z,101421.69
2018-06-12T23:32:01.028Z,101422.63
2018-06-12T23:34:29.800Z,101421.95
2018-06-12T23:36:58.778Z,101417.05
2018-06-12T23:39:27.830Z,101419.05
2018-06-12T23:41:56.570Z,101418.11
2018-06-12T23:44:25.655Z,101423.52
2018-06-12T23:46:54.394Z,101426.18
2018-06-12T23:49:23.183Z,101431.19
2018-06-12T23:51:52.213Z,101428.23
2018-06-12T23:54:20.968Z,101430.23
2018-06-12T23:56:49.771Z,101429.73
2018-06-12T23:59:19.166Z,101434.37
